sensor_id;sensor_type;location;lat;lon;timestamp;P1;durP1;ratioP1;P2;durP2;ratioP2
21501;SDS011;27639;48.674;9.242;2023-11-19T00:00:35;4.90;;;3.25;;
21501;SDS011;27639;48.674;9.242;2023-11-19T00:03:01;5.25;;;3.35;;
21501;SDS011;27639;48.674;9.242;2023-11-19T00:05:27;5.60;;;3.40;;
21501;SDS011;27639;48.674;9.242;2023-11-19T00:07:55;5.70;;;3.17;;
21501;SDS011;27639;48.674;9.242;2023-11-19T00:10:20;5.50;;;2.95;;
21501;SDS011;27639;48.674;9.242;2023-11-19T00:12:47;4.95;;;3.08;;
21501;SDS011;27639;48.674;9.242;2023-11-19T00:15:13;5.22;;;3.30;;
21501;SDS011;27639;48.674;9.242;2023-11-19T00:17:40;4.20;;;2.60;;
21501;SDS011;27639;48.674;9.242;2023-11-19T00:20:12;4.25;;;2.60;;
21501;SDS011;27639;48.674;9.242;2023-11-19T00:22:39;4.20;;;2.50;;
21501;SDS011;27639;48.674;9.242;2023-11-19T00:25:05;4.63;;;2.00;;
21501;SDS011;27639;48.674;9.242;2023-11-19T00:27:31;4.45;;;2.40;;
21501;SDS011;27639;48.674;9.242;2023-11-19T00:29:57;4.13;;;2.10;;
21501;SDS011;27639;48.674;9.242;2023-11-19T00:32:23;5.60;;;2.30;;
21501;SDS011;27639;48.674;9.242;2023-11-19T00:34:48;4.80;;;2.65;;
21501;SDS011;27639;48.674;9.242;2023-11-19T00:37:14;4.70;;;2.75;;
21501;SDS011;27639;48.674;9.242;2023-11-19T00:39:40;5.38;;;2.70;;
21501;SDS011;27639;48.674;9.242;2023-11-19T00:42:06;4.47;;;2.20;;
21501;SDS011;27639;48.674;9.242;2023-11-19T00:44:32;4.22;;;1.80;;
21501;SDS011;27639;48.674;9.242;2023-11-19T00:46:58;3.28;;;1.80;;
21501;SDS011;27639;48.674;9.242;2023-11-19T00:49:25;3.03;;;1.73;;
21501;SDS011;27639;48.674;9.242;2023-11-19T00:51:50;3.42;;;1.70;;
21501;SDS011;27639;48.674;9.242;2023-11-19T00:54:16;4.50;;;1.70;;
21501;SDS011;27639;48.674;9.242;2023-11-19T00:56:41;4.60;;;1.88;;
21501;SDS011;27639;48.674;9.242;2023-11-19T00:59:07;3.53;;;1.63;;
21501;SDS011;27639;48.674;9.242;2023-11-19T01:01:33;4.40;;;1.77;;
21501;SDS011;27639;48.674;9.242;2023-11-19T01:03:58;3.20;;;1.92;;
21501;SDS011;27639;48.674;9.242;2023-11-19T01:06:30;3.67;;;1.90;;
21501;SDS011;27639;48.674;9.242;2023-11-19T01:08:56;7.22;;;2.40;;
21501;SDS011;27639;48.674;9.242;2023-11-19T01:11:23;3.92;;;1.90;;
21501;SDS011;27639;48.674;9.242;2023-11-19T01:13:49;3.50;;;1.73;;
21501;SDS011;27639;48.674;9.242;2023-11-19T01:16:16;3.15;;;1.48;;
21501;SDS011;27639;48.674;9.242;2023-11-19T01:18:42;3.92;;;2.10;;
21501;SDS011;27639;48.674;9.242;2023-11-19T01:21:07;3.30;;;1.52;;
21501;SDS011;27639;48.674;9.242;2023-11-19T01:23:33;3.22;;;1.80;;
21501;SDS011;27639;48.674;9.242;2023-11-19T01:25:59;3.60;;;1.70;;
21501;SDS011;27639;48.674;9.242;2023-11-19T01:28:25;3.00;;;1.60;;
21501;SDS011;27639;48.674;9.242;2023-11-19T01:30:51;5.22;;;2.10;;
21501;SDS011;27639;48.674;9.242;2023-11-19T01:33:16;3.63;;;1.50;;
21501;SDS011;27639;48.674;9.242;2023-11-19T01:35:42;3.17;;;1.50;;
21501;SDS011;27639;48.674;9.242;2023-11-19T01:38:08;3.72;;;1.65;;
21501;SDS011;27639;48.674;9.242;2023-11-19T01:40:34;4.55;;;2.05;;
21501;SDS011;27639;48.674;9.242;2023-11-19T01:43:01;3.70;;;1.90;;
21501;SDS011;27639;48.674;9.242;2023-11-19T01:45:27;4.10;;;1.77;;
21501;SDS011;27639;48.674;9.242;2023-11-19T01:47:55;4.00;;;1.77;;
21501;SDS011;27639;48.674;9.242;2023-11-19T01:50:25;3.28;;;1.90;;
21501;SDS011;27639;48.674;9.242;2023-11-19T01:52:52;2.78;;;1.35;;
21501;SDS011;27639;48.674;9.242;2023-11-19T01:55:20;2.90;;;1.35;;
21501;SDS011;27639;48.674;9.242;2023-11-19T01:57:47;3.25;;;1.30;;
21501;SDS011;27639;48.674;9.242;2023-11-19T02:00:14;2.85;;;1.40;;
21501;SDS011;27639;48.674;9.242;2023-11-19T02:02:41;3.95;;;1.30;;
21501;SDS011;27639;48.674;9.242;2023-11-19T02:05:08;2.80;;;1.20;;
21501;SDS011;27639;48.674;9.242;2023-11-19T02:07:35;2.53;;;1.30;;
21501;SDS011;27639;48.674;9.242;2023-11-19T02:10:00;2.78;;;1.10;;
21501;SDS011;27639;48.674;9.242;2023-11-19T02:12:28;3.10;;;1.20;;
21501;SDS011;27639;48.674;9.242;2023-11-19T02:14:54;3.10;;;1.52;;
21501;SDS011;27639;48.674;9.242;2023-11-19T02:19:56;3.95;;;1.40;;
21501;SDS011;27639;48.674;9.242;2023-11-19T02:22:23;4.47;;;1.13;;
21501;SDS011;27639;48.674;9.242;2023-11-19T02:24:49;2.80;;;1.30;;
21501;SDS011;27639;48.674;9.242;2023-11-19T02:27:26;3.03;;;1.10;;
21501;SDS011;27639;48.674;9.242;2023-11-19T02:30:13;2.40;;;1.10;;
21501;SDS011;27639;48.674;9.242;2023-11-19T02:32:40;2.13;;;0.80;;
21501;SDS011;27639;48.674;9.242;2023-11-19T02:35:07;2.65;;;1.08;;
21501;SDS011;27639;48.674;9.242;2023-11-19T02:37:33;3.60;;;1.00;;
21501;SDS011;27639;48.674;9.242;2023-11-19T02:39:59;3.50;;;1.00;;
21501;SDS011;27639;48.674;9.242;2023-11-19T02:42:27;2.22;;;1.00;;
21501;SDS011;27639;48.674;9.242;2023-11-19T02:44:53;4.47;;;0.90;;
21501;SDS011;27639;48.674;9.242;2023-11-19T02:47:19;2.08;;;0.90;;
21501;SDS011;27639;48.674;9.242;2023-11-19T02:49:48;3.05;;;1.10;;
21501;SDS011;27639;48.674;9.242;2023-11-19T02:52:14;2.33;;;1.00;;
21501;SDS011;27639;48.674;9.242;2023-11-19T02:54:40;2.03;;;0.80;;
21501;SDS011;27639;48.674;9.242;2023-11-19T02:57:07;2.25;;;0.75;;
21501;SDS011;27639;48.674;9.242;2023-11-19T02:59:35;1.90;;;0.80;;
21501;SDS011;27639;48.674;9.242;2023-11-19T03:02:07;2.95;;;0.80;;
21501;SDS011;27639;48.674;9.242;2023-11-19T03:04:36;2.83;;;0.80;;
21501;SDS011;27639;48.674;9.242;2023-11-19T03:07:04;2.50;;;0.80;;
21501;SDS011;27639;48.674;9.242;2023-11-19T03:09:30;2.50;;;0.60;;
21501;SDS011;27639;48.674;9.242;2023-11-19T03:11:56;2.92;;;0.63;;
21501;SDS011;27639;48.674;9.242;2023-11-19T03:14:21;2.78;;;0.70;;
21501;SDS011;27639;48.674;9.242;2023-11-19T03:16:48;2.47;;;0.60;;
21501;SDS011;27639;48.674;9.242;2023-11-19T03:19:13;1.73;;;0.60;;
21501;SDS011;27639;48.674;9.242;2023-11-19T03:21:39;1.77;;;0.60;;
21501;SDS011;27639;48.674;9.242;2023-11-19T03:24:04;2.17;;;0.60;;
21501;SDS011;27639;48.674;9.242;2023-11-19T03:26:30;2.75;;;0.65;;
21501;SDS011;27639;48.674;9.242;2023-11-19T03:28:56;2.75;;;0.60;;
21501;SDS011;27639;48.674;9.242;2023-11-19T03:31:22;1.30;;;0.50;;
21501;SDS011;27639;48.674;9.242;2023-11-19T03:33:47;2.47;;;0.50;;
21501;SDS011;27639;48.674;9.242;2023-11-19T03:36:13;1.38;;;0.60;;
21501;SDS011;27639;48.674;9.242;2023-11-19T03:38:39;1.80;;;0.65;;
21501;SDS011;27639;48.674;9.242;2023-11-19T03:41:13;1.30;;;0.50;;
21501;SDS011;27639;48.674;9.242;2023-11-19T03:43:40;1.63;;;0.60;;
21501;SDS011;27639;48.674;9.242;2023-11-19T03:48:44;1.35;;;0.55;;
21501;SDS011;27639;48.674;9.242;2023-11-19T03:51:11;2.08;;;0.90;;
21501;SDS011;27639;48.674;9.242;2023-11-19T03:53:40;2.00;;;0.60;;
21501;SDS011;27639;48.674;9.242;2023-11-19T03:56:07;1.38;;;0.55;;
21501;SDS011;27639;48.674;9.242;2023-11-19T03:58:34;2.22;;;0.55;;
21501;SDS011;27639;48.674;9.242;2023-11-19T04:01:00;1.70;;;0.40;;
21501;SDS011;27639;48.674;9.242;2023-11-19T04:03:27;0.70;;;0.30;;
21501;SDS011;27639;48.674;9.242;2023-11-19T04:05:53;0.98;;;0.50;;
21501;SDS011;27639;48.674;9.242;2023-11-19T04:08:18;1.05;;;0.43;;
21501;SDS011;27639;48.674;9.242;2023-11-19T04:10:44;1.63;;;0.38;;
21501;SDS011;27639;48.674;9.242;2023-11-19T04:13:10;1.48;;;0.50;;
21501;SDS011;27639;48.674;9.242;2023-11-19T04:15:35;2.25;;;0.55;;
21501;SDS011;27639;48.674;9.242;2023-11-19T04:18:01;1.02;;;0.40;;
21501;SDS011;27639;48.674;9.242;2023-11-19T04:20:27;1.48;;;0.40;;
21501;SDS011;27639;48.674;9.242;2023-11-19T04:22:52;0.60;;;0.30;;
21501;SDS011;27639;48.674;9.242;2023-11-19T04:25:18;1.27;;;0.40;;
21501;SDS011;27639;48.674;9.242;2023-11-19T04:27:44;1.35;;;0.50;;
21501;SDS011;27639;48.674;9.242;2023-11-19T04:30:10;0.95;;;0.30;;
21501;SDS011;27639;48.674;9.242;2023-11-19T04:32:36;0.70;;;0.30;;
21501;SDS011;27639;48.674;9.242;2023-11-19T04:35:02;0.82;;;0.30;;
21501;SDS011;27639;48.674;9.242;2023-11-19T04:37:28;1.00;;;0.40;;
21501;SDS011;27639;48.674;9.242;2023-11-19T04:39:54;1.08;;;0.38;;
21501;SDS011;27639;48.674;9.242;2023-11-19T04:42:21;1.58;;;0.40;;
21501;SDS011;27639;48.674;9.242;2023-11-19T04:44:47;1.20;;;0.45;;
21501;SDS011;27639;48.674;9.242;2023-11-19T04:47:13;0.75;;;0.30;;
21501;SDS011;27639;48.674;9.242;2023-11-19T04:49:42;1.00;;;0.30;;
21501;SDS011;27639;48.674;9.242;2023-11-19T04:52:08;1.13;;;0.40;;
21501;SDS011;27639;48.674;9.242;2023-11-19T04:54:34;0.80;;;0.38;;
21501;SDS011;27639;48.674;9.242;2023-11-19T04:56:59;1.13;;;0.40;;
21501;SDS011;27639;48.674;9.242;2023-11-19T04:59:25;1.17;;;0.30;;
21501;SDS011;27639;48.674;9.242;2023-11-19T05:01:52;0.88;;;0.30;;
21501;SDS011;27639;48.674;9.242;2023-11-19T05:04:18;0.93;;;0.30;;
21501;SDS011;27639;48.674;9.242;2023-11-19T05:06:44;1.15;;;0.55;;
21501;SDS011;27639;48.674;9.242;2023-11-19T05:09:09;0.60;;;0.30;;
21501;SDS011;27639;48.674;9.242;2023-11-19T05:11:38;1.30;;;0.20;;
21501;SDS011;27639;48.674;9.242;2023-11-19T05:14:04;1.13;;;0.40;;
21501;SDS011;27639;48.674;9.242;2023-11-19T05:16:30;0.57;;;0.30;;
21501;SDS011;27639;48.674;9.242;2023-11-19T05:18:56;0.63;;;0.20;;
21501;SDS011;27639;48.674;9.242;2023-11-19T05:21:21;1.05;;;0.40;;
21501;SDS011;27639;48.674;9.242;2023-11-19T05:23:47;0.90;;;0.38;;
21501;SDS011;27639;48.674;9.242;2023-11-19T05:26:19;1.95;;;0.30;;
21501;SDS011;27639;48.674;9.242;2023-11-19T05:28:46;0.82;;;0.30;;
21501;SDS011;27639;48.674;9.242;2023-11-19T05:31:12;1.40;;;0.30;;
21501;SDS011;27639;48.674;9.242;2023-11-19T05:33:38;0.70;;;0.32;;
21501;SDS011;27639;48.674;9.242;2023-11-19T05:36:04;1.58;;;0.40;;
21501;SDS011;27639;48.674;9.242;2023-11-19T05:38:30;0.82;;;0.35;;
21501;SDS011;27639;48.674;9.242;2023-11-19T05:40:56;0.40;;;0.20;;
21501;SDS011;27639;48.674;9.242;2023-11-19T05:43:22;0.95;;;0.40;;
21501;SDS011;27639;48.674;9.242;2023-11-19T05:45:47;2.30;;;0.40;;
21501;SDS011;27639;48.674;9.242;2023-11-19T05:48:13;2.80;;;1.00;;
21501;SDS011;27639;48.674;9.242;2023-11-19T05:50:39;0.93;;;0.40;;
21501;SDS011;27639;48.674;9.242;2023-11-19T05:53:04;1.65;;;0.30;;
21501;SDS011;27639;48.674;9.242;2023-11-19T05:55:34;0.63;;;0.30;;
21501;SDS011;27639;48.674;9.242;2023-11-19T05:58:00;1.20;;;0.40;;
21501;SDS011;27639;48.674;9.242;2023-11-19T06:00:26;0.65;;;0.30;;
21501;SDS011;27639;48.674;9.242;2023-11-19T06:02:52;1.33;;;0.40;;
21501;SDS011;27639;48.674;9.242;2023-11-19T06:05:18;1.80;;;0.40;;
21501;SDS011;27639;48.674;9.242;2023-11-19T06:07:43;1.63;;;0.50;;
21501;SDS011;27639;48.674;9.242;2023-11-19T06:10:09;1.60;;;0.30;;
21501;SDS011;27639;48.674;9.242;2023-11-19T06:12:36;1.85;;;0.60;;
21501;SDS011;27639;48.674;9.242;2023-11-19T06:15:04;0.95;;;0.40;;
21501;SDS011;27639;48.674;9.242;2023-11-19T06:17:31;1.25;;;0.43;;
21501;SDS011;27639;48.674;9.242;2023-11-19T06:19:56;0.68;;;0.30;;
21501;SDS011;27639;48.674;9.242;2023-11-19T06:22:22;2.25;;;0.60;;
21501;SDS011;27639;48.674;9.242;2023-11-19T06:24:47;1.30;;;0.52;;
21501;SDS011;27639;48.674;9.242;2023-11-19T06:27:13;1.67;;;0.45;;
21501;SDS011;27639;48.674;9.242;2023-11-19T06:29:38;1.35;;;0.40;;
21501;SDS011;27639;48.674;9.242;2023-11-19T06:32:06;2.42;;;0.60;;
21501;SDS011;27639;48.674;9.242;2023-11-19T06:34:33;1.02;;;0.40;;
21501;SDS011;27639;48.674;9.242;2023-11-19T06:36:59;2.30;;;0.40;;
21501;SDS011;27639;48.674;9.242;2023-11-19T06:39:24;1.17;;;0.50;;
21501;SDS011;27639;48.674;9.242;2023-11-19T06:41:50;0.80;;;0.30;;
21501;SDS011;27639;48.674;9.242;2023-11-19T06:44:15;1.63;;;0.38;;
21501;SDS011;27639;48.674;9.242;2023-11-19T06:46:41;0.73;;;0.30;;
21501;SDS011;27639;48.674;9.242;2023-11-19T06:49:07;1.52;;;0.60;;
21501;SDS011;27639;48.674;9.242;2023-11-19T06:51:33;1.13;;;0.40;;
21501;SDS011;27639;48.674;9.242;2023-11-19T06:53:59;2.78;;;1.02;;
21501;SDS011;27639;48.674;9.242;2023-11-19T06:56:25;1.13;;;0.40;;
21501;SDS011;27639;48.674;9.242;2023-11-19T06:58:50;1.20;;;0.50;;
21501;SDS011;27639;48.674;9.242;2023-11-19T07:01:17;2.10;;;0.70;;
21501;SDS011;27639;48.674;9.242;2023-11-19T07:03:44;2.00;;;0.50;;
21501;SDS011;27639;48.674;9.242;2023-11-19T07:06:11;1.20;;;0.50;;
21501;SDS011;27639;48.674;9.242;2023-11-19T07:08:38;1.60;;;0.65;;
21501;SDS011;27639;48.674;9.242;2023-11-19T07:11:04;1.35;;;0.70;;
21501;SDS011;27639;48.674;9.242;2023-11-19T07:13:29;1.85;;;0.60;;
21501;SDS011;27639;48.674;9.242;2023-11-19T07:15:55;2.58;;;0.65;;
21501;SDS011;27639;48.674;9.242;2023-11-19T07:18:21;1.20;;;0.47;;
21501;SDS011;27639;48.674;9.242;2023-11-19T07:20:47;0.80;;;0.35;;
21501;SDS011;27639;48.674;9.242;2023-11-19T07:23:13;1.05;;;0.40;;
21501;SDS011;27639;48.674;9.242;2023-11-19T07:25:42;2.13;;;0.63;;
21501;SDS011;27639;48.674;9.242;2023-11-19T07:28:08;2.85;;;0.60;;
21501;SDS011;27639;48.674;9.242;2023-11-19T07:30:34;2.25;;;0.50;;
21501;SDS011;27639;48.674;9.242;2023-11-19T07:33:00;2.72;;;0.90;;
21501;SDS011;27639;48.674;9.242;2023-11-19T07:35:26;2.38;;;0.65;;
21501;SDS011;27639;48.674;9.242;2023-11-19T07:37:51;1.98;;;0.63;;
21501;SDS011;27639;48.674;9.242;2023-11-19T07:40:17;4.57;;;0.70;;
21501;SDS011;27639;48.674;9.242;2023-11-19T07:42:44;1.83;;;0.52;;
21501;SDS011;27639;48.674;9.242;2023-11-19T07:45:09;1.85;;;0.50;;
21501;SDS011;27639;48.674;9.242;2023-11-19T07:47:35;1.60;;;0.50;;
21501;SDS011;27639;48.674;9.242;2023-11-19T07:50:00;2.22;;;0.50;;
21501;SDS011;27639;48.674;9.242;2023-11-19T07:52:26;1.60;;;0.50;;
21501;SDS011;27639;48.674;9.242;2023-11-19T07:54:51;1.65;;;0.70;;
21501;SDS011;27639;48.674;9.242;2023-11-19T07:57:17;1.35;;;0.52;;
21501;SDS011;27639;48.674;9.242;2023-11-19T07:59:42;1.20;;;0.50;;
21501;SDS011;27639;48.674;9.242;2023-11-19T08:02:08;2.13;;;0.60;;
21501;SDS011;27639;48.674;9.242;2023-11-19T08:04:34;2.17;;;0.55;;
21501;SDS011;27639;48.674;9.242;2023-11-19T08:06:59;1.27;;;0.40;;
21501;SDS011;27639;48.674;9.242;2023-11-19T08:09:25;2.28;;;0.90;;
21501;SDS011;27639;48.674;9.242;2023-11-19T08:11:50;1.48;;;0.50;;
21501;SDS011;27639;48.674;9.242;2023-11-19T08:14:16;2.83;;;0.80;;
21501;SDS011;27639;48.674;9.242;2023-11-19T08:16:41;1.25;;;0.60;;
21501;SDS011;27639;48.674;9.242;2023-11-19T08:19:07;1.95;;;0.65;;
21501;SDS011;27639;48.674;9.242;2023-11-19T08:21:33;1.67;;;0.73;;
21501;SDS011;27639;48.674;9.242;2023-11-19T08:23:59;2.00;;;0.80;;
21501;SDS011;27639;48.674;9.242;2023-11-19T08:26:24;2.10;;;0.80;;
21501;SDS011;27639;48.674;9.242;2023-11-19T08:28:50;2.63;;;1.30;;
21501;SDS011;27639;48.674;9.242;2023-11-19T08:31:17;2.40;;;0.55;;
21501;SDS011;27639;48.674;9.242;2023-11-19T08:33:42;2.03;;;0.70;;
21501;SDS011;27639;48.674;9.242;2023-11-19T08:36:08;3.03;;;0.80;;
21501;SDS011;27639;48.674;9.242;2023-11-19T08:38:34;2.22;;;0.82;;
21501;SDS011;27639;48.674;9.242;2023-11-19T08:40:59;2.75;;;1.02;;
21501;SDS011;27639;48.674;9.242;2023-11-19T08:43:26;2.47;;;0.90;;
21501;SDS011;27639;48.674;9.242;2023-11-19T08:45:52;1.73;;;0.63;;
21501;SDS011;27639;48.674;9.242;2023-11-19T08:48:17;1.98;;;0.88;;
21501;SDS011;27639;48.674;9.242;2023-11-19T08:50:43;2.15;;;0.80;;
21501;SDS011;27639;48.674;9.242;2023-11-19T08:53:08;3.20;;;1.10;;
21501;SDS011;27639;48.674;9.242;2023-11-19T08:55:34;2.50;;;1.00;;
21501;SDS011;27639;48.674;9.242;2023-11-19T08:57:59;3.35;;;1.20;;
21501;SDS011;27639;48.674;9.242;2023-11-19T09:00:26;3.75;;;1.33;;
21501;SDS011;27639;48.674;9.242;2023-11-19T09:02:51;3.20;;;1.20;;
21501;SDS011;27639;48.674;9.242;2023-11-19T09:05:17;3.38;;;1.00;;
21501;SDS011;27639;48.674;9.242;2023-11-19T09:07:42;1.38;;;0.65;;
21501;SDS011;27639;48.674;9.242;2023-11-19T09:10:08;1.08;;;0.50;;
21501;SDS011;27639;48.674;9.242;2023-11-19T09:12:34;1.83;;;0.60;;
21501;SDS011;27639;48.674;9.242;2023-11-19T09:15:00;1.98;;;0.70;;
21501;SDS011;27639;48.674;9.242;2023-11-19T09:17:25;2.97;;;0.88;;
21501;SDS011;27639;48.674;9.242;2023-11-19T09:19:51;2.25;;;0.95;;
21501;SDS011;27639;48.674;9.242;2023-11-19T09:22:17;3.20;;;1.33;;
21501;SDS011;27639;48.674;9.242;2023-11-19T09:24:42;4.18;;;1.00;;
21501;SDS011;27639;48.674;9.242;2023-11-19T09:27:09;1.95;;;1.02;;
21501;SDS011;27639;48.674;9.242;2023-11-19T09:29:35;2.53;;;0.60;;
21501;SDS011;27639;48.674;9.242;2023-11-19T09:32:01;3.65;;;0.70;;
21501;SDS011;27639;48.674;9.242;2023-11-19T09:34:27;3.55;;;1.33;;
21501;SDS011;27639;48.674;9.242;2023-11-19T09:36:53;3.10;;;1.23;;
21501;SDS011;27639;48.674;9.242;2023-11-19T09:39:18;4.20;;;1.50;;
21501;SDS011;27639;48.674;9.242;2023-11-19T09:41:45;2.88;;;1.33;;
21501;SDS011;27639;48.674;9.242;2023-11-19T09:44:11;2.65;;;0.85;;
21501;SDS011;27639;48.674;9.242;2023-11-19T09:46:37;2.47;;;1.10;;
21501;SDS011;27639;48.674;9.242;2023-11-19T09:49:05;2.08;;;0.88;;
21501;SDS011;27639;48.674;9.242;2023-11-19T09:51:32;2.53;;;0.90;;
21501;SDS011;27639;48.674;9.242;2023-11-19T09:53:58;3.28;;;1.10;;
21501;SDS011;27639;48.674;9.242;2023-11-19T09:56:24;3.67;;;0.93;;
21501;SDS011;27639;48.674;9.242;2023-11-19T09:58:50;3.08;;;1.20;;
21501;SDS011;27639;48.674;9.242;2023-11-19T10:01:15;3.30;;;1.20;;
21501;SDS011;27639;48.674;9.242;2023-11-19T10:03:41;2.13;;;0.80;;
21501;SDS011;27639;48.674;9.242;2023-11-19T10:06:09;1.65;;;0.65;;
21501;SDS011;27639;48.674;9.242;2023-11-19T10:08:38;2.67;;;0.70;;
21501;SDS011;27639;48.674;9.242;2023-11-19T10:11:05;1.90;;;0.70;;
21501;SDS011;27639;48.674;9.242;2023-11-19T10:13:31;1.65;;;0.68;;
21501;SDS011;27639;48.674;9.242;2023-11-19T10:16:08;2.13;;;0.67;;
21501;SDS011;27639;48.674;9.242;2023-11-19T10:18:36;2.40;;;0.95;;
21501;SDS011;27639;48.674;9.242;2023-11-19T10:21:03;2.10;;;0.80;;
21501;SDS011;27639;48.674;9.242;2023-11-19T10:23:31;2.00;;;0.60;;
21501;SDS011;27639;48.674;9.242;2023-11-19T10:26:03;1.50;;;0.55;;
21501;SDS011;27639;48.674;9.242;2023-11-19T10:28:38;2.35;;;1.10;;
21501;SDS011;27639;48.674;9.242;2023-11-19T10:31:05;2.83;;;1.10;;
21501;SDS011;27639;48.674;9.242;2023-11-19T10:33:31;3.20;;;1.10;;
21501;SDS011;27639;48.674;9.242;2023-11-19T10:35:57;2.33;;;0.88;;
21501;SDS011;27639;48.674;9.242;2023-11-19T10:38:23;2.65;;;0.90;;
21501;SDS011;27639;48.674;9.242;2023-11-19T10:40:52;2.35;;;0.90;;
21501;SDS011;27639;48.674;9.242;2023-11-19T10:43:20;3.15;;;0.70;;
21501;SDS011;27639;48.674;9.242;2023-11-19T10:45:49;1.88;;;0.70;;
21501;SDS011;27639;48.674;9.242;2023-11-19T10:48:15;1.85;;;0.70;;
21501;SDS011;27639;48.674;9.242;2023-11-19T10:50:43;2.40;;;0.90;;
21501;SDS011;27639;48.674;9.242;2023-11-19T10:53:10;2.47;;;1.15;;
21501;SDS011;27639;48.674;9.242;2023-11-19T10:55:40;3.50;;;1.40;;
21501;SDS011;27639;48.674;9.242;2023-11-19T10:58:07;3.08;;;0.70;;
21501;SDS011;27639;48.674;9.242;2023-11-19T11:00:37;3.10;;;0.77;;
21501;SDS011;27639;48.674;9.242;2023-11-19T11:03:29;1.00;;;0.38;;
21501;SDS011;27639;48.674;9.242;2023-11-19T11:05:56;1.48;;;0.60;;
21501;SDS011;27639;48.674;9.242;2023-11-19T11:08:23;1.67;;;0.60;;
21501;SDS011;27639;48.674;9.242;2023-11-19T11:10:52;1.92;;;0.57;;
21501;SDS011;27639;48.674;9.242;2023-11-19T11:13:23;2.78;;;0.60;;
21501;SDS011;27639;48.674;9.242;2023-11-19T11:15:49;2.22;;;0.30;;
21501;SDS011;27639;48.674;9.242;2023-11-19T11:18:16;1.85;;;0.50;;
21501;SDS011;27639;48.674;9.242;2023-11-19T11:20:44;1.63;;;0.50;;
21501;SDS011;27639;48.674;9.242;2023-11-19T11:39:31;3.58;;;1.13;;
21501;SDS011;27639;48.674;9.242;2023-11-19T11:44:57;2.30;;;0.80;;
21501;SDS011;27639;48.674;9.242;2023-11-19T11:47:25;1.90;;;0.65;;
21501;SDS011;27639;48.674;9.242;2023-11-19T11:49:50;3.50;;;0.80;;
21501;SDS011;27639;48.674;9.242;2023-11-19T11:52:17;3.90;;;1.00;;
21501;SDS011;27639;48.674;9.242;2023-11-19T11:54:43;2.40;;;0.90;;
21501;SDS011;27639;48.674;9.242;2023-11-19T11:57:10;2.33;;;0.70;;
21501;SDS011;27639;48.674;9.242;2023-11-19T12:02:09;2.35;;;0.77;;
21501;SDS011;27639;48.674;9.242;2023-11-19T12:04:36;2.17;;;0.70;;
21501;SDS011;27639;48.674;9.242;2023-11-19T12:07:06;1.77;;;0.50;;
21501;SDS011;27639;48.674;9.242;2023-11-19T12:09:42;3.65;;;0.60;;
21501;SDS011;27639;48.674;9.242;2023-11-19T12:12:19;0.85;;;0.30;;
21501;SDS011;27639;48.674;9.242;2023-11-19T12:19:59;2.92;;;0.65;;
21501;SDS011;27639;48.674;9.242;2023-11-19T12:22:26;1.70;;;0.60;;
21501;SDS011;27639;48.674;9.242;2023-11-19T12:24:55;1.55;;;0.52;;
21501;SDS011;27639;48.674;9.242;2023-11-19T12:27:21;1.73;;;0.50;;
21501;SDS011;27639;48.674;9.242;2023-11-19T12:29:47;1.65;;;0.50;;
21501;SDS011;27639;48.674;9.242;2023-11-19T12:32:13;1.92;;;0.70;;
21501;SDS011;27639;48.674;9.242;2023-11-19T12:34:39;1.80;;;0.60;;
21501;SDS011;27639;48.674;9.242;2023-11-19T12:37:05;1.40;;;0.43;;
21501;SDS011;27639;48.674;9.242;2023-11-19T12:39:31;3.75;;;0.80;;
21501;SDS011;27639;48.674;9.242;2023-11-19T12:41:57;3.38;;;0.73;;
21501;SDS011;27639;48.674;9.242;2023-11-19T12:44:24;2.45;;;0.50;;
21501;SDS011;27639;48.674;9.242;2023-11-19T12:47:00;1.67;;;0.50;;
21501;SDS011;27639;48.674;9.242;2023-11-19T12:49:26;1.65;;;0.65;;
21501;SDS011;27639;48.674;9.242;2023-11-19T12:51:52;2.35;;;0.63;;
21501;SDS011;27639;48.674;9.242;2023-11-19T12:54:17;1.35;;;0.50;;
21501;SDS011;27639;48.674;9.242;2023-11-19T12:56:52;1.73;;;0.63;;
21501;SDS011;27639;48.674;9.242;2023-11-19T12:59:18;1.95;;;0.50;;
21501;SDS011;27639;48.674;9.242;2023-11-19T13:04:22;2.33;;;0.57;;
21501;SDS011;27639;48.674;9.242;2023-11-19T13:06:52;2.22;;;0.50;;
21501;SDS011;27639;48.674;9.242;2023-11-19T13:09:21;2.55;;;0.70;;
21501;SDS011;27639;48.674;9.242;2023-11-19T13:11:53;1.55;;;0.50;;
21501;SDS011;27639;48.674;9.242;2023-11-19T13:14:20;2.20;;;0.80;;
21501;SDS011;27639;48.674;9.242;2023-11-19T13:16:46;3.50;;;0.88;;
21501;SDS011;27639;48.674;9.242;2023-11-19T13:19:12;6.55;;;3.63;;
21501;SDS011;27639;48.674;9.242;2023-11-19T13:21:43;7.32;;;3.45;;
21501;SDS011;27639;48.674;9.242;2023-11-19T13:24:11;8.48;;;4.15;;
21501;SDS011;27639;48.674;9.242;2023-11-19T13:26:37;7.95;;;4.00;;
21501;SDS011;27639;48.674;9.242;2023-11-19T13:29:03;3.50;;;1.30;;
21501;SDS011;27639;48.674;9.242;2023-11-19T13:31:29;7.50;;;3.08;;
21501;SDS011;27639;48.674;9.242;2023-11-19T13:33:55;6.43;;;2.67;;
21501;SDS011;27639;48.674;9.242;2023-11-19T13:36:21;6.93;;;4.32;;
21501;SDS011;27639;48.674;9.242;2023-11-19T13:38:47;3.28;;;1.25;;
21501;SDS011;27639;48.674;9.242;2023-11-19T13:41:13;11.65;;;6.22;;
21501;SDS011;27639;48.674;9.242;2023-11-19T13:43:39;13.48;;;8.50;;
21501;SDS011;27639;48.674;9.242;2023-11-19T13:46:04;18.55;;;10.45;;
21501;SDS011;27639;48.674;9.242;2023-11-19T13:48:30;9.95;;;6.38;;
21501;SDS011;27639;48.674;9.242;2023-11-19T13:50:57;12.68;;;8.05;;
21501;SDS011;27639;48.674;9.242;2023-11-19T13:53:23;3.75;;;2.17;;
21501;SDS011;27639;48.674;9.242;2023-11-19T13:55:49;3.10;;;1.25;;
21501;SDS011;27639;48.674;9.242;2023-11-19T13:58:15;4.38;;;1.45;;
21501;SDS011;27639;48.674;9.242;2023-11-19T14:00:41;5.30;;;1.80;;
21501;SDS011;27639;48.674;9.242;2023-11-19T14:03:07;5.50;;;1.38;;
21501;SDS011;27639;48.674;9.242;2023-11-19T14:05:32;2.60;;;0.73;;
21501;SDS011;27639;48.674;9.242;2023-11-19T14:07:58;3.55;;;0.77;;
21501;SDS011;27639;48.674;9.242;2023-11-19T14:10:24;2.65;;;0.70;;
21501;SDS011;27639;48.674;9.242;2023-11-19T14:12:49;3.17;;;0.60;;
21501;SDS011;27639;48.674;9.242;2023-11-19T14:15:15;3.17;;;0.63;;
21501;SDS011;27639;48.674;9.242;2023-11-19T14:17:44;1.65;;;0.43;;
21501;SDS011;27639;48.674;9.242;2023-11-19T14:20:10;1.98;;;0.57;;
21501;SDS011;27639;48.674;9.242;2023-11-19T14:22:40;1.75;;;0.52;;
21501;SDS011;27639;48.674;9.242;2023-11-19T14:25:06;1.55;;;0.57;;
21501;SDS011;27639;48.674;9.242;2023-11-19T14:27:34;2.80;;;0.65;;
21501;SDS011;27639;48.674;9.242;2023-11-19T14:30:07;2.63;;;0.60;;
21501;SDS011;27639;48.674;9.242;2023-11-19T14:32:36;1.65;;;0.60;;
21501;SDS011;27639;48.674;9.242;2023-11-19T14:35:02;2.28;;;0.70;;
21501;SDS011;27639;48.674;9.242;2023-11-19T14:37:28;2.70;;;0.60;;
21501;SDS011;27639;48.674;9.242;2023-11-19T14:39:55;6.03;;;1.00;;
21501;SDS011;27639;48.674;9.242;2023-11-19T14:42:22;3.40;;;1.73;;
21501;SDS011;27639;48.674;9.242;2023-11-19T14:44:48;3.85;;;1.70;;
21501;SDS011;27639;48.674;9.242;2023-11-19T14:47:14;3.90;;;1.45;;
21501;SDS011;27639;48.674;9.242;2023-11-19T14:49:39;2.70;;;1.20;;
21501;SDS011;27639;48.674;9.242;2023-11-19T14:52:05;3.80;;;0.80;;
21501;SDS011;27639;48.674;9.242;2023-11-19T14:54:30;2.15;;;0.60;;
21501;SDS011;27639;48.674;9.242;2023-11-19T14:56:56;1.42;;;0.52;;
21501;SDS011;27639;48.674;9.242;2023-11-19T14:59:24;1.73;;;0.60;;
21501;SDS011;27639;48.674;9.242;2023-11-19T15:01:49;2.80;;;0.73;;
21501;SDS011;27639;48.674;9.242;2023-11-19T15:04:15;2.70;;;0.63;;
21501;SDS011;27639;48.674;9.242;2023-11-19T15:06:41;1.63;;;0.57;;
21501;SDS011;27639;48.674;9.242;2023-11-19T15:09:06;1.60;;;0.50;;
21501;SDS011;27639;48.674;9.242;2023-11-19T15:11:32;4.05;;;0.60;;
21501;SDS011;27639;48.674;9.242;2023-11-19T15:13:58;1.38;;;0.45;;
21501;SDS011;27639;48.674;9.242;2023-11-19T15:16:25;1.45;;;0.63;;
21501;SDS011;27639;48.674;9.242;2023-11-19T15:18:56;2.28;;;0.60;;